| time (UTC) | temp F | wind direction | speed MPH | gust MPH | rain 1hr in | rain 24hr in | rain mn in | humidity % | barometer mb |
| 20260905015422 | 80 | 239 | 1.0 | 2.0 | 0.00 | 0.22 | 0.22 | 99 | 4250.7 |
| 20260905014417 | 80 | 222 | 0.0 | 1.0 | 0.00 | 0.22 | 0.22 | 99 | 4250.7 |
| 20260905013414 | 80 | 234 | 1.0 | 1.0 | 0.00 | 0.22 | 0.22 | 99 | 4250.6 |
| 20260905012410 | 80 | 253 | 1.0 | 1.0 | 0.00 | 0.22 | 0.22 | 99 | 4250.4 |
| 20260905011408 | 80 | 220 | 0.0 | 0.0 | 0.00 | 0.22 | 0.22 | 99 | 4250.5 |
| 20260905010404 | 80 | 243 | 0.0 | 0.0 | 0.00 | 0.22 | 0.22 | 99 | 4250.6 |
| 20260905005402 | 81 | 241 | 1.0 | 1.0 | 0.00 | 0.22 | 0.22 | 99 | 4250.5 |
| 20260905004357 | 80 | 223 | 2.0 | 2.0 | 0.00 | 0.22 | 0.22 | 99 | 4250.4 |
| 20260905003354 | 80 | 237 | 2.0 | 2.0 | 0.00 | 0.22 | 0.22 | 99 | 4250.6 |
| 20260905002349 | 81 | 235 | 1.0 | 1.0 | 0.00 | 0.22 | 0.22 | 99 | 4250.5 |
| 20260905001344 | 81 | 230 | 1.0 | 1.0 | 0.00 | 0.22 | 0.22 | 98 | 4250.2 |
| 20260905000340 | 82 | 49 | 0.0 | 0.0 | 0.00 | 0.22 | 0.22 | 96 | 4250.3 |
| 20260904235337 | 82 | 276 | 0.0 | 0.0 | 0.00 | 0.22 | 0.22 | 97 | 4250.4 |
| 20260904234332 | 82 | 254 | 0.0 | 1.0 | 0.00 | 0.22 | 0.22 | 99 | 4250.6 |
| 20260904233329 | 82 | 250 | 0.0 | 0.0 | 0.00 | 0.22 | 0.22 | 99 | 4250.5 |
| 20260904232328 | 82 | 34 | 0.0 | 1.0 | 0.00 | 0.22 | 0.22 | 97 | 4250.5 |
| 20260904231324 | 82 | 27 | 0.0 | 0.0 | 0.00 | 0.22 | 0.22 | 98 | 4250.2 |
| 20260904230324 | 82 | 15 | 0.0 | 0.0 | 0.00 | 0.22 | 0.22 | 96 | 4250.3 |
| 20260904225324 | 83 | 349 | 2.0 | 2.0 | 0.00 | 0.22 | 0.22 | 94 | 4250.2 |
| 20260904224319 | 83 | 312 | 0.0 | 1.0 | 0.00 | 0.22 | 0.22 | 93 | 4250.0 |
| 20260904223318 | 81 | 312 | 1.0 | 1.0 | 0.00 | 0.22 | 0.22 | 94 | 4250.2 |
| 20260904222315 | 80 | 243 | 1.0 | 1.0 | 0.00 | 0.22 | 0.22 | 98 | 4249.8 |
| 20260904221310 | 79 | 255 | 0.0 | 0.0 | 0.00 | 0.22 | 0.22 | 97 | 4250.2 |
| 20260904220310 | 78 | 237 | 1.0 | 1.0 | 0.00 | 0.22 | 0.22 | 99 | 4250.0 |
| 20260904215306 | 77 | 213 | 3.0 | 3.0 | 0.00 | 0.22 | 0.22 | 96 | 4250.4 |
| 20260904214304 | 77 | 228 | 2.0 | 2.0 | 0.00 | 0.22 | 0.22 | 99 | 4250.5 |
| 20260904213303 | 77 | 233 | 1.0 | 1.0 | 0.59 | 0.22 | 0.22 | 99 | 4250.3 |
| 20260904212259 | 78 | 241 | 4.0 | 5.0 | 0.78 | 0.13 | 0.13 | 90 | 4250.5 |
| 20260904211255 | 80 | 334 | 6.0 | 8.0 | 0.00 | 0.00 | 0.00 | 90 | 4250.6 |
| 20260904210250 | 84 | 292 | 1.0 | 2.0 | 0.00 | 0.00 | 0.00 | 81 | 4250.9 |
| 20260904205248 | 83 | 26 | 10.0 | 14.0 | 0.00 | 0.00 | 0.00 | 82 | 4250.3 |
| 20260904204246 | 87 | 23 | 9.0 | 11.0 | 0.00 | 0.00 | 0.00 | 77 | 4250.2 |
| 20260904203244 | 92 | 355 | 9.0 | 10.0 | 0.00 | 0.00 | 0.00 | 68 | 4250.1 |
| 20260904202242 | 92 | 7 | 7.0 | 8.0 | 0.00 | 0.00 | 0.00 | 71 | 4250.1 |
| 20260904201237 | 92 | 7 | 10.0 | 11.0 | 0.00 | 0.00 | 0.00 | 70 | 4250.2 |
| 20260904200232 | 93 | 337 | 14.0 | 15.0 | 0.00 | 0.00 | 0.00 | 67 | 4250.3 |
| 20260904195230 | 93 | 343 | 13.0 | 15.0 | 0.00 | 0.00 | 0.00 | 70 | 4250.5 |
| 20260904194230 | 99 | 346 | 2.0 | 2.0 | 0.00 | 0.00 | 0.00 | 55 | 4250.6 |
| 20260904193227 | 99 | 342 | 3.0 | 3.0 | 0.00 | 0.00 | 0.00 | 56 | 4250.9 |
| 20260904192223 | 99 | 349 | 2.0 | 2.0 | 0.00 | 0.00 | 0.00 | 55 | 4250.9 |
| 20260904191222 | 100 | 359 | 1.0 | 1.0 | 0.00 | 0.00 | 0.00 | 54 | 4251.0 |
| 20260904190219 | 99 | 350 | 3.0 | 3.0 | 0.00 | 0.00 | 0.00 | 57 | 4251.3 |
| 20260904185216 | 99 | 350 | 3.0 | 3.0 | 0.00 | 0.00 | 0.00 | 57 | 4251.4 |
| 20260904184211 | 99 | 354 | 2.0 | 2.0 | 0.00 | 0.00 | 0.00 | 57 | 4251.5 |
| 20260904183207 | 98 | 331 | 2.0 | 2.0 | 0.00 | 0.00 | 0.00 | 54 | 4251.7 |
| 20260904182202 | 97 | 357 | 3.0 | 3.0 | 0.00 | 0.00 | 0.00 | 57 | 4251.8 |
| 20260904181157 | 97 | 4 | 4.0 | 5.0 | 0.00 | 0.00 | 0.00 | 59 | 4251.7 |
| 20260904180154 | 97 | 359 | 4.0 | 5.0 | 0.00 | 0.00 | 0.00 | 65 | 4252.1 |
| 20260904175152 | 97 | 346 | 2.0 | 2.0 | 0.00 | 0.00 | 0.00 | 57 | 4251.9 |
| 20260904174149 | 97 | 6 | 3.0 | 3.0 | 0.00 | 0.00 | 0.00 | 58 | 4252.1 |
| 20260904173145 | 97 | 338 | 2.0 | 2.0 | 0.00 | 0.00 | 0.00 | 58 | 4252.4 |
| 20260904172141 | 96 | 359 | 3.0 | 3.0 | 0.00 | 0.00 | 0.00 | 64 | 4252.4 |
| 20260904171137 | 96 | 348 | 2.0 | 2.0 | 0.00 | 0.00 | 0.00 | 61 | 4252.6 |
| 20260904170134 | 96 | 354 | 1.0 | 1.0 | 0.00 | 0.00 | 0.00 | 65 | 4252.8 |
| 20260904165133 | 94 | 5 | 2.0 | 2.0 | 0.00 | 0.00 | 0.00 | 69 | 4252.9 |
| 20260904164128 | 93 | 9 | 1.0 | 1.0 | 0.00 | 0.00 | 0.00 | 72 | 4253.0 |
| 20260904163125 | 93 | 9 | 1.0 | 1.0 | 0.00 | 0.00 | 0.00 | 68 | 4252.9 |
| 20260904162125 | 93 | 3 | 0.0 | 1.0 | 0.00 | 0.00 | 0.00 | 72 | 4253.2 |
| 20260904161122 | 92 | 7 | 2.0 | 2.0 | 0.00 | 0.00 | 0.00 | 71 | 4253.2 |
| 20260904160119 | 91 | 11 | 2.0 | 2.0 | 0.00 | 0.00 | 0.00 | 73 | 4253.1 |
| 20260904155119 | 91 | 11 | 2.0 | 3.0 | 0.00 | 0.00 | 0.00 | 78 | 4253.1 |
| 20260904154118 | 90 | 9 | 3.0 | 3.0 | 0.00 | 0.00 | 0.00 | 78 | 4253.4 |
| 20260904153115 | 89 | 15 | 3.0 | 3.0 | 0.00 | 0.00 | 0.00 | 79 | 4253.2 |
| 20260904152112 | 89 | 7 | 2.0 | 2.0 | 0.00 | 0.00 | 0.00 | 81 | 4253.2 |
| 20260904151111 | 87 | 4 | 3.0 | 3.0 | 0.00 | 0.00 | 0.00 | 83 | 4253.1 |
| 20260904150108 | 86 | 19 | 3.0 | 3.0 | 0.00 | 0.00 | 0.00 | 86 | 4252.9 |
| 20260904145108 | 86 | 0 | 3.0 | 3.0 | 0.00 | 0.00 | 0.00 | 86 | 4252.9 |
| 20260904144105 | 85 | 6 | 1.0 | 2.0 | 0.00 | 0.00 | 0.00 | 87 | 4253.0 |
| 20260904143102 | 85 | 55 | 2.0 | 2.0 | 0.00 | 0.00 | 0.00 | 87 | 4253.1 |
| 20260904142059 | 84 | 359 | 2.0 | 2.0 | 0.00 | 0.00 | 0.00 | 88 | 4253.0 |
| 20260904141055 | 83 | 34 | 1.0 | 1.0 | 0.00 | 0.00 | 0.00 | 91 | 4253.1 |
| 20260904140051 | 82 | 353 | 1.0 | 1.0 | 0.00 | 0.00 | 0.00 | 92 | 4253.0 |
| 20260904135047 | 81 | 357 | 1.0 | 1.0 | 0.00 | 0.00 | 0.00 | 94 | 4253.2 |
| 20260904134042 | 80 | 343 | 1.0 | 1.0 | 0.00 | 0.00 | 0.00 | 94 | 4253.0 |
| 20260904133039 | 80 | 343 | 0.0 | 0.0 | 0.00 | 0.00 | 0.00 | 95 | 4253.2 |
| 20260904132039 | 79 | 343 | 0.0 | 0.0 | 0.00 | 0.00 | 0.00 | 95 | 4253.2 |
| 20260904131034 | 78 | 346 | 2.0 | 2.0 | 0.00 | 0.00 | 0.00 | 95 | 4253.0 |
| 20260904130034 | 78 | 314 | 0.0 | 0.0 | 0.00 | 0.00 | 0.00 | 97 | 4252.9 |
| 20260904125031 | 77 | 223 | 0.0 | 0.0 | 0.00 | 0.00 | 0.00 | 98 | 4253.0 |
| 20260904124028 | 76 | 223 | 1.0 | 1.0 | 0.00 | 0.00 | 0.00 | 97 | 4253.0 |
| 20260904123024 | 75 | 212 | 0.0 | 1.0 | 0.00 | 0.00 | 0.00 | 98 | 4252.8 |
| 20260904122019 | 75 | 220 | 1.0 | 1.0 | 0.00 | 0.00 | 0.00 | 98 | 4252.8 |
| 20260904121016 | 74 | 207 | 1.0 | 1.0 | 0.00 | 0.00 | 0.00 | 99 | 4252.6 |
| 20260904120014 | 74 | 219 | 1.0 | 1.0 | 0.00 | 0.00 | 0.00 | 99 | 4252.5 |
| 20260904115008 | 73 | 201 | 1.0 | 1.0 | 0.00 | 0.00 | 0.00 | 99 | 4252.3 |
| 20260904114004 | 73 | 220 | 2.0 | 2.0 | 0.00 | 0.00 | 0.00 | 99 | 4252.1 |
| 20260904113003 | 73 | 223 | 1.0 | 2.0 | 0.00 | 0.00 | 0.00 | 99 | 4252.1 |
| 20260904112000 | 73 | 216 | 1.0 | 1.0 | 0.00 | 0.00 | 0.00 | 99 | 4252.0 |
| 20260904110957 | 74 | 236 | 1.0 | 1.0 | 0.00 | 0.00 | 0.00 | 99 | 4252.0 |
| 20260904105952 | 73 | 222 | 0.0 | 1.0 | 0.00 | 0.00 | 0.00 | 99 | 4252.0 |
| 20260904104947 | 73 | 209 | 0.0 | 1.0 | 0.00 | 0.00 | 0.00 | 99 | 4251.9 |
| 20260904103944 | 74 | 220 | 1.0 | 1.0 | 0.00 | 0.00 | 0.00 | 99 | 4251.9 |
| 20260904102941 | 74 | 214 | 1.0 | 1.0 | 0.00 | 0.00 | 0.00 | 99 | 4251.8 |
| 20260904101938 | 74 | 214 | 1.0 | 1.0 | 0.00 | 0.00 | 0.00 | 99 | 4251.8 |
| 20260904100936 | 74 | 209 | 1.0 | 1.0 | 0.00 | 0.00 | 0.00 | 99 | 4251.7 |
| 20260904095932 | 74 | 224 | 1.0 | 1.0 | 0.00 | 0.00 | 0.00 | 99 | 4251.5 |
| 20260904094927 | 74 | 223 | 1.0 | 1.0 | 0.00 | 0.00 | 0.00 | 99 | 4251.6 |
| 20260904093924 | 74 | 215 | 1.0 | 1.0 | 0.00 | 0.00 | 0.00 | 99 | 4251.4 |
| 20260904092920 | 74 | 220 | 0.0 | 1.0 | 0.00 | 0.00 | 0.00 | 99 | 4251.4 |
| 20260904091919 | 74 | 211 | 1.0 | 1.0 | 0.00 | 0.00 | 0.00 | 99 | 4251.2 |
| 20260904090914 | 75 | 216 | 1.0 | 1.0 | 0.00 | 0.00 | 0.00 | 99 | 4251.3 |
| 20260904085911 | 75 | 212 | 1.0 | 1.0 | 0.00 | 0.00 | 0.00 | 99 | 4251.3 |
| 20260904084907 | 75 | 226 | 0.0 | 1.0 | 0.00 | 0.00 | 0.00 | 99 | 4251.4 |
| 20260904083904 | 75 | 211 | 1.0 | 1.0 | 0.00 | 0.00 | 0.00 | 99 | 4251.4 |
| 20260904082902 | 75 | 213 | 1.0 | 1.0 | 0.00 | 0.00 | 0.00 | 99 | 4251.3 |
| 20260904081857 | 76 | 222 | 1.0 | 1.0 | 0.00 | 0.00 | 0.00 | 99 | 4251.2 |
| 20260904080854 | 76 | 212 | 0.0 | 0.0 | 0.00 | 0.00 | 0.00 | 99 | 4251.0 |
| 20260904075851 | 76 | 220 | 2.0 | 2.0 | 0.00 | 0.00 | 0.00 | 99 | 4251.1 |
| 20260904074850 | 76 | 216 | 1.0 | 1.0 | 0.00 | 0.00 | 0.00 | 99 | 4251.0 |
| 20260904073847 | 76 | 213 | 1.0 | 1.0 | 0.00 | 0.00 | 0.00 | 99 | 4251.1 |
| 20260904072844 | 76 | 215 | 1.0 | 1.0 | 0.00 | 0.00 | 0.00 | 98 | 4250.8 |
| 20260904071840 | 76 | 216 | 0.0 | 1.0 | 0.00 | 0.00 | 0.00 | 98 | 4251.1 |
| 20260904070835 | 76 | 217 | 1.0 | 1.0 | 0.00 | 0.00 | 0.00 | 98 | 4251.0 |
| 20260904065835 | 77 | 218 | 1.0 | 1.0 | 0.00 | 0.00 | 0.00 | 97 | 4251.0 |
| 20260904064832 | 77 | 215 | 1.0 | 1.0 | 0.00 | 0.00 | 0.00 | 97 | 4251.2 |
| 20260904063829 | 77 | 213 | 1.0 | 1.0 | 0.00 | 0.00 | 0.00 | 97 | 4251.1 |
| 20260904062826 | 77 | 214 | 1.0 | 1.0 | 0.00 | 0.00 | 0.00 | 96 | 4251.3 |
| 20260904061823 | 77 | 218 | 2.0 | 2.0 | 0.00 | 0.00 | 0.00 | 96 | 4251.0 |
| 20260904060821 | 77 | 221 | 1.0 | 1.0 | 0.00 | 0.00 | 0.00 | 96 | 4251.3 |
| 20260904055817 | 77 | 223 | 1.0 | 1.0 | 0.00 | 0.00 | 0.00 | 96 | 4251.4 |
| 20260904054814 | 78 | 219 | 1.0 | 1.0 | 0.00 | 0.00 | 0.00 | 96 | 4251.3 |
| 20260904053811 | 78 | 215 | 0.0 | 1.0 | 0.00 | 0.00 | 0.00 | 95 | 4251.6 |
| 20260904052807 | 78 | 211 | 1.0 | 1.0 | 0.00 | 0.00 | 0.00 | 95 | 4251.4 |
| 20260904051805 | 79 | 212 | 0.0 | 1.0 | 0.00 | 0.00 | 0.00 | 94 | 4251.4 |
| 20260904050801 | 79 | 212 | 1.0 | 1.0 | 0.00 | 0.00 | 0.00 | 94 | 4251.7 |
| 20260904045758 | 79 | 216 | 1.0 | 2.0 | 0.00 | 0.00 | 0.00 | 93 | 4251.6 |
| 20260904044753 | 79 | 226 | 1.0 | 1.0 | 0.00 | 0.00 | 0.00 | 92 | 4251.5 |
| 20260904043751 | 80 | 210 | 1.0 | 1.0 | 0.00 | 0.00 | 0.00 | 92 | 4251.3 |
| 20260904042749 | 80 | 220 | 0.0 | 0.0 | 0.00 | 0.00 | 0.00 | 91 | 4251.6 |
| 20260904041744 | 80 | 226 | 0.0 | 0.0 | 0.00 | 0.00 | 0.00 | 90 | 4251.4 |
| 20260904040742 | 81 | 209 | 0.0 | 1.0 | 0.00 | 0.00 | 0.00 | 90 | 4251.5 |
| 20260904035740 | 81 | 210 | 0.0 | 0.0 | 0.00 | 0.00 | 0.00 | 87 | 4251.5 |
| 20260904034739 | 81 | 215 | 0.0 | 0.0 | 0.00 | 0.00 | 0.00 | 88 | 4251.6 |
| 20260904033737 | 81 | 222 | 1.0 | 1.0 | 0.00 | 0.00 | 0.00 | 88 | 4251.6 |
| 20260904032735 | 82 | 188 | 0.0 | 0.0 | 0.00 | 0.00 | 0.00 | 88 | 4251.7 |
| 20260904031734 | 82 | 218 | 1.0 | 1.0 | 0.00 | 0.00 | 0.00 | 87 | 4251.8 |
| 20260904030731 | 82 | 228 | 1.0 | 1.0 | 0.00 | 0.00 | 0.00 | 87 | 4251.9 |
| 20260904025730 | 82 | 209 | 1.0 | 1.0 | 0.00 | 0.00 | 0.00 | 87 | 4251.8 |
| 20260904024726 | 83 | 205 | 0.0 | 0.0 | 0.00 | 0.00 | 0.00 | 84 | 4251.9 |
| 20260904023723 | 84 | 203 | 0.0 | 0.0 | 0.00 | 0.00 | 0.00 | 84 | 4251.8 |
| 20260904022723 | 84 | 216 | 0.0 | 1.0 | 0.00 | 0.00 | 0.00 | 83 | 4251.6 |
| 20260904021723 | 84 | 225 | 1.0 | 1.0 | 0.00 | 0.00 | 0.00 | 83 | 4251.5 |
| 20260904020719 | 85 | 224 | 0.0 | 0.0 | 0.00 | 0.00 | 0.00 | 81 | 4251.4 |